sensor_id;sensor_type;location;lat;lon;timestamp;pressure;altitude;pressure_sealevel;temperature;humidity
77702;BME280;66868;42.708;23.404;2023-06-05T00:00:27;95629.28;;;17.06;88.44
77702;BME280;66868;42.708;23.404;2023-06-05T00:02:53;95615.91;;;17.03;88.61
77702;BME280;66868;42.708;23.404;2023-06-05T00:05:19;95610.91;;;16.90;88.60
77702;BME280;66868;42.708;23.404;2023-06-05T00:07:44;95607.78;;;16.75;88.81
77702;BME280;66868;42.708;23.404;2023-06-05T00:10:10;95620.78;;;16.72;89.20
77702;BME280;66868;42.708;23.404;2023-06-05T00:12:37;95608.81;;;16.62;89.14
77702;BME280;66868;42.708;23.404;2023-06-05T00:15:03;95621.81;;;16.59;89.12
77702;BME280;66868;42.708;23.404;2023-06-05T00:17:30;95621.47;;;16.63;88.87
77702;BME280;66868;42.708;23.404;2023-06-05T00:19:56;95593.97;;;16.32;89.51
77702;BME280;66868;42.708;23.404;2023-06-05T00:22:25;95631.78;;;16.51;88.92
77702;BME280;66868;42.708;23.404;2023-06-05T00:24:50;95630.19;;;16.37;89.66
77702;BME280;66868;42.708;23.404;2023-06-05T00:27:16;95624.75;;;16.30;90.31
77702;BME280;66868;42.708;23.404;2023-06-05T00:29:41;95601.59;;;16.21;89.91
77702;BME280;66868;42.708;23.404;2023-06-05T00:32:06;95623.97;;;16.41;90.09
77702;BME280;66868;42.708;23.404;2023-06-05T00:34:32;95619.44;;;16.45;89.87
77702;BME280;66868;42.708;23.404;2023-06-05T00:36:57;95611.63;;;16.46;89.29
77702;BME280;66868;42.708;23.404;2023-06-05T00:39:23;95628.97;;;16.54;89.37
77702;BME280;66868;42.708;23.404;2023-06-05T00:41:48;95618.66;;;16.55;88.97
77702;BME280;66868;42.708;23.404;2023-06-05T00:44:14;95620.75;;;16.61;88.91
77702;BME280;66868;42.708;23.404;2023-06-05T00:46:39;95627.41;;;16.64;88.59
77702;BME280;66868;42.708;23.404;2023-06-05T00:49:06;95620.44;;;16.66;88.45
77702;BME280;66868;42.708;23.404;2023-06-05T00:51:32;95613.00;;;16.63;88.58
77702;BME280;66868;42.708;23.404;2023-06-05T00:53:58;95616.06;;;16.44;89.15
77702;BME280;66868;42.708;23.404;2023-06-05T00:56:25;95609.91;;;16.47;89.08
77702;BME280;66868;42.708;23.404;2023-06-05T00:58:52;95612.94;;;16.52;88.51
77702;BME280;66868;42.708;23.404;2023-06-05T01:01:18;95601.16;;;16.38;89.06
77702;BME280;66868;42.708;23.404;2023-06-05T01:03:46;95597.09;;;16.35;89.57
77702;BME280;66868;42.708;23.404;2023-06-05T01:06:13;95562.22;;;16.23;89.51
77702;BME280;66868;42.708;23.404;2023-06-05T01:08:38;95590.59;;;16.43;89.40
77702;BME280;66868;42.708;23.404;2023-06-05T01:14:22;95593.53;;;16.49;88.97
77702;BME280;66868;42.708;23.404;2023-06-05T01:16:52;95599.47;;;16.50;88.51
77702;BME280;66868;42.708;23.404;2023-06-05T01:19:21;95589.69;;;16.44;88.44
77702;BME280;66868;42.708;23.404;2023-06-05T01:21:50;95570.97;;;16.32;88.61
77702;BME280;66868;42.708;23.404;2023-06-05T01:24:16;95595.25;;;16.38;88.47
77702;BME280;66868;42.708;23.404;2023-06-05T01:26:53;95587.09;;;16.32;88.50
77702;BME280;66868;42.708;23.404;2023-06-05T01:29:35;95591.88;;;16.37;88.50
77702;BME280;66868;42.708;23.404;2023-06-05T01:32:11;95570.22;;;16.08;90.08
77702;BME280;66868;42.708;23.404;2023-06-05T01:34:42;95584.78;;;15.95;92.56
77702;BME280;66868;42.708;23.404;2023-06-05T01:37:09;95579.72;;;15.82;92.73
77702;BME280;66868;42.708;23.404;2023-06-05T01:39:38;95584.59;;;15.74;92.76
77702;BME280;66868;42.708;23.404;2023-06-05T01:42:05;95585.72;;;15.70;92.40
77702;BME280;66868;42.708;23.404;2023-06-05T01:44:31;95559.47;;;15.68;92.48
77702;BME280;66868;42.708;23.404;2023-06-05T01:46:57;95579.72;;;15.82;91.95
77702;BME280;66868;42.708;23.404;2023-06-05T01:49:23;95567.44;;;15.76;91.96
77702;BME280;66868;42.708;23.404;2023-06-05T01:51:48;95575.13;;;15.87;91.30
77702;BME280;66868;42.708;23.404;2023-06-05T01:54:14;95558.38;;;15.83;91.23
77702;BME280;66868;42.708;23.404;2023-06-05T01:56:41;95567.13;;;15.91;90.85
77702;BME280;66868;42.708;23.404;2023-06-05T01:59:08;95567.50;;;15.98;90.83
77702;BME280;66868;42.708;23.404;2023-06-05T02:01:34;95538.19;;;15.80;90.51
77702;BME280;66868;42.708;23.404;2023-06-05T02:04:00;95578.41;;;16.00;90.45
77702;BME280;66868;42.708;23.404;2023-06-05T02:06:32;95574.69;;;15.93;90.66
77702;BME280;66868;42.708;23.404;2023-06-05T02:09:01;95578.13;;;15.81;90.78
77702;BME280;66868;42.708;23.404;2023-06-05T02:11:27;95574.75;;;15.57;91.72
77702;BME280;66868;42.708;23.404;2023-06-05T02:13:52;95567.59;;;15.25;93.49
77702;BME280;66868;42.708;23.404;2023-06-05T02:16:18;95584.06;;;15.09;94.76
77702;BME280;66868;42.708;23.404;2023-06-05T02:18:43;95555.13;;;14.84;96.14
77702;BME280;66868;42.708;23.404;2023-06-05T02:21:13;95576.22;;;14.99;96.34
77702;BME280;66868;42.708;23.404;2023-06-05T02:23:40;95582.47;;;14.82;97.15
77702;BME280;66868;42.708;23.404;2023-06-05T02:26:07;95579.72;;;14.73;98.02
77702;BME280;66868;42.708;23.404;2023-06-05T02:28:32;95585.44;;;14.64;98.51
77702;BME280;66868;42.708;23.404;2023-06-05T02:30:57;95524.88;;;14.29;98.63
77702;BME280;66868;42.708;23.404;2023-06-05T02:33:24;95568.44;;;14.51;99.51
77702;BME280;66868;42.708;23.404;2023-06-05T02:35:50;95573.94;;;14.45;100.00
77702;BME280;66868;42.708;23.404;2023-06-05T02:38:16;95575.88;;;14.54;99.36
77702;BME280;66868;42.708;23.404;2023-06-05T02:40:41;95573.81;;;14.59;98.62
77702;BME280;66868;42.708;23.404;2023-06-05T02:43:06;95575.97;;;14.66;98.11
77702;BME280;66868;42.708;23.404;2023-06-05T02:45:33;95545.50;;;14.51;97.87
77702;BME280;66868;42.708;23.404;2023-06-05T02:47:59;95584.41;;;14.79;97.07
77702;BME280;66868;42.708;23.404;2023-06-05T02:50:24;95561.19;;;14.58;97.28
77702;BME280;66868;42.708;23.404;2023-06-05T02:52:49;95573.09;;;14.57;98.13
77702;BME280;66868;42.708;23.404;2023-06-05T02:55:15;95578.81;;;14.48;98.61
77702;BME280;66868;42.708;23.404;2023-06-05T02:57:42;95582.59;;;14.55;98.46
77702;BME280;66868;42.708;23.404;2023-06-05T03:00:09;95587.06;;;14.65;98.15
77702;BME280;66868;42.708;23.404;2023-06-05T03:02:34;95586.97;;;14.79;96.86
77702;BME280;66868;42.708;23.404;2023-06-05T03:05:03;95581.75;;;14.93;95.72
77702;BME280;66868;42.708;23.404;2023-06-05T03:07:29;95582.72;;;15.03;94.90
77702;BME280;66868;42.708;23.404;2023-06-05T03:09:55;95549.53;;;14.92;94.08
77702;BME280;66868;42.708;23.404;2023-06-05T03:12:20;95563.78;;;15.07;93.53
77702;BME280;66868;42.708;23.404;2023-06-05T03:14:46;95584.75;;;15.23;93.13
77702;BME280;66868;42.708;23.404;2023-06-05T03:17:11;95567.34;;;15.04;93.42
77702;BME280;66868;42.708;23.404;2023-06-05T03:19:36;95591.47;;;15.24;93.11
77702;BME280;66868;42.708;23.404;2023-06-05T03:22:02;95558.69;;;15.07;92.76
77702;BME280;66868;42.708;23.404;2023-06-05T03:24:29;95585.56;;;15.24;92.72
77702;BME280;66868;42.708;23.404;2023-06-05T03:26:54;95561.91;;;15.09;93.09
77702;BME280;66868;42.708;23.404;2023-06-05T03:29:20;95589.44;;;15.17;94.14
77702;BME280;66868;42.708;23.404;2023-06-05T03:31:45;95592.56;;;14.96;95.06
77702;BME280;66868;42.708;23.404;2023-06-05T03:34:10;95594.81;;;14.88;95.87
77702;BME280;66868;42.708;23.404;2023-06-05T03:36:36;95597.25;;;14.90;95.67
77702;BME280;66868;42.708;23.404;2023-06-05T03:39:03;95597.38;;;14.88;95.82
77702;BME280;66868;42.708;23.404;2023-06-05T03:41:28;95610.09;;;14.88;96.00
77702;BME280;66868;42.708;23.404;2023-06-05T03:43:54;95611.91;;;14.99;95.55
77702;BME280;66868;42.708;23.404;2023-06-05T03:46:19;95592.88;;;14.92;95.56
77702;BME280;66868;42.708;23.404;2023-06-05T03:48:46;95610.47;;;15.08;95.13
77702;BME280;66868;42.708;23.404;2023-06-05T03:51:12;95608.97;;;15.05;95.87
77702;BME280;66868;42.708;23.404;2023-06-05T03:53:38;95591.50;;;14.99;95.36
77702;BME280;66868;42.708;23.404;2023-06-05T03:56:05;95610.06;;;15.14;95.64
77702;BME280;66868;42.708;23.404;2023-06-05T03:58:32;95608.19;;;15.28;95.50
77702;BME280;66868;42.708;23.404;2023-06-05T04:00:57;95592.88;;;15.28;95.61
77702;BME280;66868;42.708;23.404;2023-06-05T04:03:23;95604.72;;;15.29;95.91
77702;BME280;66868;42.708;23.404;2023-06-05T04:05:48;95601.53;;;15.38;95.77
77702;BME280;66868;42.708;23.404;2023-06-05T04:08:13;95604.25;;;15.48;95.28
77702;BME280;66868;42.708;23.404;2023-06-05T04:10:40;95603.66;;;15.57;94.72
77702;BME280;66868;42.708;23.404;2023-06-05T04:13:05;95607.53;;;15.63;94.80
77702;BME280;66868;42.708;23.404;2023-06-05T04:15:31;95605.22;;;15.71;95.01
77702;BME280;66868;42.708;23.404;2023-06-05T04:17:57;95615.00;;;15.77;94.81
77702;BME280;66868;42.708;23.404;2023-06-05T04:20:22;95583.16;;;15.70;94.76
77702;BME280;66868;42.708;23.404;2023-06-05T04:22:48;95609.28;;;15.97;94.71
77702;BME280;66868;42.708;23.404;2023-06-05T04:25:14;95590.81;;;15.94;94.66
77702;BME280;66868;42.708;23.404;2023-06-05T04:27:40;95608.28;;;16.11;94.72
77702;BME280;66868;42.708;23.404;2023-06-05T04:30:07;95614.69;;;16.16;94.59
77702;BME280;66868;42.708;23.404;2023-06-05T04:32:34;95610.31;;;16.18;94.33
77702;BME280;66868;42.708;23.404;2023-06-05T04:35:03;95625.81;;;16.39;94.28
77702;BME280;66868;42.708;23.404;2023-06-05T04:37:28;95622.66;;;16.35;94.82
77702;BME280;66868;42.708;23.404;2023-06-05T04:39:54;95595.41;;;16.12;95.87
77702;BME280;66868;42.708;23.404;2023-06-05T04:42:20;95614.69;;;16.16;95.60
77702;BME280;66868;42.708;23.404;2023-06-05T04:44:56;95610.25;;;16.07;95.68
77702;BME280;66868;42.708;23.404;2023-06-05T04:47:22;95608.22;;;16.23;95.70
77702;BME280;66868;42.708;23.404;2023-06-05T04:49:47;95600.22;;;16.28;95.30
77702;BME280;66868;42.708;23.404;2023-06-05T04:52:14;95595.13;;;16.39;95.29
77702;BME280;66868;42.708;23.404;2023-06-05T04:54:39;95587.84;;;16.46;94.85
77702;BME280;66868;42.708;23.404;2023-06-05T04:57:05;95605.56;;;16.71;94.40
77702;BME280;66868;42.708;23.404;2023-06-05T04:59:31;95587.75;;;16.69;94.07
77702;BME280;66868;42.708;23.404;2023-06-05T05:01:57;95609.19;;;16.91;93.23
77702;BME280;66868;42.708;23.404;2023-06-05T05:04:23;95612.53;;;17.02;92.94
77702;BME280;66868;42.708;23.404;2023-06-05T05:06:48;95623.59;;;17.14;92.76
77702;BME280;66868;42.708;23.404;2023-06-05T05:09:16;95608.34;;;17.12;92.85
77702;BME280;66868;42.708;23.404;2023-06-05T05:11:42;95616.81;;;17.35;92.38
77702;BME280;66868;42.708;23.404;2023-06-05T05:14:08;95610.63;;;17.49;91.78
77702;BME280;66868;42.708;23.404;2023-06-05T05:16:33;95611.22;;;17.63;91.46
77702;BME280;66868;42.708;23.404;2023-06-05T05:18:59;95598.25;;;17.76;91.11
77702;BME280;66868;42.708;23.404;2023-06-05T05:21:24;95605.94;;;17.87;91.04
77702;BME280;66868;42.708;23.404;2023-06-05T05:23:50;95599.59;;;18.02;90.80
77702;BME280;66868;42.708;23.404;2023-06-05T05:26:16;95609.09;;;18.12;90.79
77702;BME280;66868;42.708;23.404;2023-06-05T05:28:42;95613.22;;;18.24;90.19
77702;BME280;66868;42.708;23.404;2023-06-05T05:31:07;95606.41;;;18.34;89.70
77702;BME280;66868;42.708;23.404;2023-06-05T05:33:32;95611.50;;;18.45;89.43
77702;BME280;66868;42.708;23.404;2023-06-05T05:35:58;95538.53;;;18.07;89.53
77702;BME280;66868;42.708;23.404;2023-06-05T05:38:23;95619.84;;;18.58;89.44
77702;BME280;66868;42.708;23.404;2023-06-05T05:40:49;95617.44;;;18.66;89.42
77702;BME280;66868;42.708;23.404;2023-06-05T05:43:14;95614.63;;;18.69;89.30
77702;BME280;66868;42.708;23.404;2023-06-05T05:45:40;95609.81;;;18.76;88.75
77702;BME280;66868;42.708;23.404;2023-06-05T05:48:07;95605.66;;;18.84;88.73
77702;BME280;66868;42.708;23.404;2023-06-05T05:50:33;95612.88;;;18.90;88.48
77702;BME280;66868;42.708;23.404;2023-06-05T05:52:58;95602.84;;;18.87;88.15
77702;BME280;66868;42.708;23.404;2023-06-05T05:55:24;95599.94;;;19.02;87.42
77702;BME280;66868;42.708;23.404;2023-06-05T05:57:49;95601.06;;;19.09;86.82
77702;BME280;66868;42.708;23.404;2023-06-05T06:00:16;95601.38;;;19.25;86.24
77702;BME280;66868;42.708;23.404;2023-06-05T06:02:41;95597.38;;;19.41;84.62
77702;BME280;66868;42.708;23.404;2023-06-05T06:05:07;95600.25;;;19.48;83.74
77702;BME280;66868;42.708;23.404;2023-06-05T06:07:34;95585.25;;;19.53;83.74
77702;BME280;66868;42.708;23.404;2023-06-05T06:10:00;95601.09;;;19.58;83.00
77702;BME280;66868;42.708;23.404;2023-06-05T06:12:26;95577.13;;;19.48;82.28
77702;BME280;66868;42.708;23.404;2023-06-05T06:14:54;95605.00;;;19.62;82.11
77702;BME280;66868;42.708;23.404;2023-06-05T06:17:20;95588.09;;;19.50;81.94
77702;BME280;66868;42.708;23.404;2023-06-05T06:19:45;95608.28;;;19.64;81.85
77702;BME280;66868;42.708;23.404;2023-06-05T06:22:13;95604.91;;;19.73;80.98
77702;BME280;66868;42.708;23.404;2023-06-05T06:24:40;95602.75;;;19.78;80.88
77702;BME280;66868;42.708;23.404;2023-06-05T06:27:06;95589.31;;;19.65;80.92
77702;BME280;66868;42.708;23.404;2023-06-05T06:29:31;95588.13;;;19.69;80.78
77702;BME280;66868;42.708;23.404;2023-06-05T06:31:57;95597.47;;;19.80;80.52
77702;BME280;66868;42.708;23.404;2023-06-05T06:34:22;95589.63;;;19.81;80.28
77702;BME280;66868;42.708;23.404;2023-06-05T06:36:49;95601.66;;;19.91;79.30
77702;BME280;66868;42.708;23.404;2023-06-05T06:39:15;95604.09;;;19.82;78.84
77702;BME280;66868;42.708;23.404;2023-06-05T06:41:41;95595.84;;;19.89;79.22
77702;BME280;66868;42.708;23.404;2023-06-05T06:44:06;95599.63;;;19.94;79.32
77702;BME280;66868;42.708;23.404;2023-06-05T06:46:32;95592.34;;;19.99;80.09
77702;BME280;66868;42.708;23.404;2023-06-05T06:48:57;95591.94;;;20.04;79.58
77702;BME280;66868;42.708;23.404;2023-06-05T06:51:23;95588.00;;;20.09;79.19
77702;BME280;66868;42.708;23.404;2023-06-05T06:53:48;95588.53;;;20.13;78.88
77702;BME280;66868;42.708;23.404;2023-06-05T06:56:14;95547.28;;;19.95;78.70
77702;BME280;66868;42.708;23.404;2023-06-05T06:58:42;95571.75;;;20.18;79.41
77702;BME280;66868;42.708;23.404;2023-06-05T07:01:08;95579.88;;;20.23;78.47
77702;BME280;66868;42.708;23.404;2023-06-05T07:03:34;95582.88;;;20.38;78.72
77702;BME280;66868;42.708;23.404;2023-06-05T07:05:59;95582.72;;;20.49;78.50
77702;BME280;66868;42.708;23.404;2023-06-05T07:08:25;95580.13;;;20.49;78.50
77702;BME280;66868;42.708;23.404;2023-06-05T07:10:52;95580.63;;;20.62;78.00
77702;BME280;66868;42.708;23.404;2023-06-05T07:13:20;95585.78;;;20.62;77.52
77702;BME280;66868;42.708;23.404;2023-06-05T07:15:47;95566.59;;;20.57;77.04
77702;BME280;66868;42.708;23.404;2023-06-05T07:18:12;95570.94;;;20.56;75.87
77702;BME280;66868;42.708;23.404;2023-06-05T07:20:37;95595.53;;;20.68;75.69
77702;BME280;66868;42.708;23.404;2023-06-05T07:23:03;95587.16;;;20.66;76.10
77702;BME280;66868;42.708;23.404;2023-06-05T07:25:28;95580.38;;;20.65;75.29
77702;BME280;66868;42.708;23.404;2023-06-05T07:27:53;95574.94;;;20.68;74.65
77702;BME280;66868;42.708;23.404;2023-06-05T07:30:19;95585.75;;;20.72;74.36
77702;BME280;66868;42.708;23.404;2023-06-05T07:32:45;95583.88;;;20.74;74.70
77702;BME280;66868;42.708;23.404;2023-06-05T07:35:10;95589.84;;;20.75;74.31
77702;BME280;66868;42.708;23.404;2023-06-05T07:37:36;95571.72;;;20.66;73.96
77702;BME280;66868;42.708;23.404;2023-06-05T07:40:02;95564.66;;;20.68;73.46
77702;BME280;66868;42.708;23.404;2023-06-05T07:42:28;95588.06;;;20.85;72.80
77702;BME280;66868;42.708;23.404;2023-06-05T07:44:53;95602.78;;;20.92;73.59
77702;BME280;66868;42.708;23.404;2023-06-05T07:47:18;95597.91;;;20.99;73.45
77702;BME280;66868;42.708;23.404;2023-06-05T07:49:44;95600.84;;;21.04;72.88
77702;BME280;66868;42.708;23.404;2023-06-05T07:52:09;95558.25;;;20.82;72.28
77702;BME280;66868;42.708;23.404;2023-06-05T07:54:35;95611.38;;;21.20;72.71
77702;BME280;66868;42.708;23.404;2023-06-05T07:57:01;95604.91;;;21.16;72.97
77702;BME280;66868;42.708;23.404;2023-06-05T07:59:26;95594.03;;;21.22;72.74
77702;BME280;66868;42.708;23.404;2023-06-05T08:01:53;95603.69;;;21.38;72.62
77702;BME280;66868;42.708;23.404;2023-06-05T08:04:21;95601.31;;;21.54;72.31
77702;BME280;66868;42.708;23.404;2023-06-05T08:06:51;95572.28;;;21.34;71.65
77702;BME280;66868;42.708;23.404;2023-06-05T08:09:17;95600.03;;;21.68;71.95
77702;BME280;66868;42.708;23.404;2023-06-05T08:11:42;95572.69;;;21.57;71.70
77702;BME280;66868;42.708;23.404;2023-06-05T08:14:08;95603.44;;;21.86;71.20
77702;BME280;66868;42.708;23.404;2023-06-05T08:16:35;95592.50;;;21.92;70.57
77702;BME280;66868;42.708;23.404;2023-06-05T08:19:00;95591.81;;;21.99;70.00
77702;BME280;66868;42.708;23.404;2023-06-05T08:21:26;95615.38;;;22.22;70.21
77702;BME280;66868;42.708;23.404;2023-06-05T08:23:52;95597.97;;;22.24;69.81
77702;BME280;66868;42.708;23.404;2023-06-05T08:26:20;95614.28;;;22.42;69.49
77702;BME280;66868;42.708;23.404;2023-06-05T08:28:47;95615.66;;;22.55;69.65
77702;BME280;66868;42.708;23.404;2023-06-05T08:31:12;95615.41;;;22.66;69.40
77702;BME280;66868;42.708;23.404;2023-06-05T08:33:38;95613.41;;;22.77;69.24
77702;BME280;66868;42.708;23.404;2023-06-05T08:36:04;95615.41;;;22.83;68.56
77702;BME280;66868;42.708;23.404;2023-06-05T08:38:31;95619.47;;;22.94;67.52
77702;BME280;66868;42.708;23.404;2023-06-05T08:41:05;95600.75;;;22.92;67.09
77702;BME280;66868;42.708;23.404;2023-06-05T08:43:31;95613.91;;;23.07;66.83
77702;BME280;66868;42.708;23.404;2023-06-05T08:45:57;95622.41;;;23.25;66.58
77702;BME280;66868;42.708;23.404;2023-06-05T08:48:24;95638.41;;;23.37;66.36
77702;BME280;66868;42.708;23.404;2023-06-05T08:50:50;95610.47;;;23.40;65.79
77702;BME280;66868;42.708;23.404;2023-06-05T08:53:17;95595.22;;;23.47;66.46
77702;BME280;66868;42.708;23.404;2023-06-05T08:55:46;95614.66;;;23.67;65.43
77702;BME280;66868;42.708;23.404;2023-06-05T08:58:13;95622.16;;;23.94;63.68
77702;BME280;66868;42.708;23.404;2023-06-05T09:00:39;95619.44;;;24.12;62.84
77702;BME280;66868;42.708;23.404;2023-06-05T09:03:05;95618.50;;;24.21;62.05
77702;BME280;66868;42.708;23.404;2023-06-05T09:05:31;95623.19;;;24.34;61.59
77702;BME280;66868;42.708;23.404;2023-06-05T09:07:57;95622.22;;;24.43;60.88
77702;BME280;66868;42.708;23.404;2023-06-05T09:10:28;95623.03;;;24.51;61.79
77702;BME280;66868;42.708;23.404;2023-06-05T09:13:03;95584.34;;;24.42;60.63
77702;BME280;66868;42.708;23.404;2023-06-05T09:15:33;95585.31;;;24.57;60.21
77702;BME280;66868;42.708;23.404;2023-06-05T09:18:04;95610.88;;;24.76;59.22
77702;BME280;66868;42.708;23.404;2023-06-05T09:20:33;95625.63;;;24.92;59.81
77702;BME280;66868;42.708;23.404;2023-06-05T09:23:01;95611.84;;;24.99;60.54
77702;BME280;66868;42.708;23.404;2023-06-05T09:25:27;95617.63;;;25.18;60.01
77702;BME280;66868;42.708;23.404;2023-06-05T09:28:08;95623.78;;;25.25;58.86
77702;BME280;66868;42.708;23.404;2023-06-05T09:30:53;95616.16;;;25.23;58.45
77702;BME280;66868;42.708;23.404;2023-06-05T09:33:18;95615.00;;;25.26;58.06
77702;BME280;66868;42.708;23.404;2023-06-05T09:35:44;95623.53;;;25.34;57.97
77702;BME280;66868;42.708;23.404;2023-06-05T09:38:36;95626.47;;;25.31;56.52
77702;BME280;66868;42.708;23.404;2023-06-05T09:41:09;95599.13;;;25.21;56.48
77702;BME280;66868;42.708;23.404;2023-06-05T09:43:35;95625.31;;;25.42;57.20
77702;BME280;66868;42.708;23.404;2023-06-05T09:46:15;95622.38;;;25.45;56.50
77702;BME280;66868;42.708;23.404;2023-06-05T09:48:42;95622.22;;;25.46;57.05
77702;BME280;66868;42.708;23.404;2023-06-05T09:51:16;95626.44;;;25.39;56.72
77702;BME280;66868;42.708;23.404;2023-06-05T09:53:48;95610.16;;;25.23;56.72
77702;BME280;66868;42.708;23.404;2023-06-05T09:56:18;95609.00;;;25.25;56.89
77702;BME280;66868;42.708;23.404;2023-06-05T09:58:48;95613.41;;;25.17;56.30
77702;BME280;66868;42.708;23.404;2023-06-05T10:01:19;95614.06;;;25.19;56.82
77702;BME280;66868;42.708;23.404;2023-06-05T10:03:57;95596.72;;;25.11;56.89
77702;BME280;66868;42.708;23.404;2023-06-05T10:06:24;95597.53;;;25.12;57.26
77702;BME280;66868;42.708;23.404;2023-06-05T10:08:51;95594.97;;;25.03;57.39
77702;BME280;66868;42.708;23.404;2023-06-05T10:11:19;95585.13;;;24.91;57.69
77702;BME280;66868;42.708;23.404;2023-06-05T10:13:47;95584.00;;;24.93;58.52
77702;BME280;66868;42.708;23.404;2023-06-05T10:16:13;95597.88;;;25.08;58.50
77702;BME280;66868;42.708;23.404;2023-06-05T10:18:38;95542.88;;;24.74;57.88
77702;BME280;66868;42.708;23.404;2023-06-05T10:21:05;95583.19;;;24.93;56.79
77702;BME280;66868;42.708;23.404;2023-06-05T10:23:32;95596.59;;;25.04;57.22
77702;BME280;66868;42.708;23.404;2023-06-05T10:26:00;95575.56;;;24.99;57.99
77702;BME280;66868;42.708;23.404;2023-06-05T10:34:19;95595.13;;;25.49;56.15
77702;BME280;66868;42.708;23.404;2023-06-05T10:39:14;95571.00;;;25.57;54.50
77702;BME280;66868;42.708;23.404;2023-06-05T10:41:40;95575.59;;;25.69;55.20
77702;BME280;66868;42.708;23.404;2023-06-05T10:44:05;95583.34;;;25.77;55.75
77702;BME280;66868;42.708;23.404;2023-06-05T10:46:35;95578.09;;;25.85;56.13
77702;BME280;66868;42.708;23.404;2023-06-05T10:49:14;95579.03;;;25.92;54.94
77702;BME280;66868;42.708;23.404;2023-06-05T10:57:05;95570.91;;;25.95;55.14
77702;BME280;66868;42.708;23.404;2023-06-05T10:59:33;95573.78;;;25.78;55.75
77702;BME280;66868;42.708;23.404;2023-06-05T11:07:22;95570.81;;;25.50;57.32
77702;BME280;66868;42.708;23.404;2023-06-05T11:15:12;95562.53;;;25.16;57.46
77702;BME280;66868;42.708;23.404;2023-06-05T11:17:39;95550.00;;;24.96;58.41
77702;BME280;66868;42.708;23.404;2023-06-05T11:20:07;95566.78;;;25.08;59.27
77702;BME280;66868;42.708;23.404;2023-06-05T11:30:14;95549.75;;;25.14;59.40
77702;BME280;66868;42.708;23.404;2023-06-05T11:32:41;95546.06;;;25.08;59.15
77702;BME280;66868;42.708;23.404;2023-06-05T11:35:07;95549.22;;;25.27;59.26
77702;BME280;66868;42.708;23.404;2023-06-05T11:37:34;95545.91;;;25.41;58.13
77702;BME280;66868;42.708;23.404;2023-06-05T11:40:01;95529.69;;;25.47;58.18
77702;BME280;66868;42.708;23.404;2023-06-05T11:42:31;95549.59;;;25.77;57.76
77702;BME280;66868;42.708;23.404;2023-06-05T11:44:56;95536.88;;;25.90;57.18
77702;BME280;66868;42.708;23.404;2023-06-05T11:47:23;95517.50;;;26.01;56.38
77702;BME280;66868;42.708;23.404;2023-06-05T11:49:49;95523.06;;;26.13;55.76
77702;BME280;66868;42.708;23.404;2023-06-05T11:52:21;95526.22;;;26.31;55.02
77702;BME280;66868;42.708;23.404;2023-06-05T11:54:47;95523.81;;;26.44;56.05
77702;BME280;66868;42.708;23.404;2023-06-05T11:57:39;95542.84;;;26.89;55.42
77702;BME280;66868;42.708;23.404;2023-06-05T12:00:05;95529.06;;;27.03;54.39
77702;BME280;66868;42.708;23.404;2023-06-05T12:02:32;95535.09;;;27.39;54.38
77702;BME280;66868;42.708;23.404;2023-06-05T12:04:58;95531.81;;;27.66;52.98
77702;BME280;66868;42.708;23.404;2023-06-05T12:07:27;95532.88;;;27.93;52.53
77702;BME280;66868;42.708;23.404;2023-06-05T12:09:53;95530.72;;;28.18;51.29
77702;BME280;66868;42.708;23.404;2023-06-05T12:12:19;95524.00;;;28.30;50.16
77702;BME280;66868;42.708;23.404;2023-06-05T12:14:45;95535.00;;;28.53;49.26
77702;BME280;66868;42.708;23.404;2023-06-05T12:17:11;95512.94;;;28.49;49.47
77702;BME280;66868;42.708;23.404;2023-06-05T12:19:37;95529.50;;;28.70;49.16
77702;BME280;66868;42.708;23.404;2023-06-05T12:22:04;95505.41;;;28.68;49.64
77702;BME280;66868;42.708;23.404;2023-06-05T12:24:30;95529.31;;;28.99;49.78
77702;BME280;66868;42.708;23.404;2023-06-05T12:27:01;95500.66;;;29.06;47.50
77702;BME280;66868;42.708;23.404;2023-06-05T12:29:31;95495.59;;;29.38;47.03
77702;BME280;66868;42.708;23.404;2023-06-05T12:31:59;95501.88;;;29.64;47.73
77702;BME280;66868;42.708;23.404;2023-06-05T12:34:45;95515.03;;;30.10;44.86
77702;BME280;66868;42.708;23.404;2023-06-05T12:37:21;95504.38;;;30.38;45.21
77702;BME280;66868;42.708;23.404;2023-06-05T12:39:46;95510.78;;;30.68;43.91
77702;BME280;66868;42.708;23.404;2023-06-05T12:42:12;95502.06;;;30.94;43.92
77702;BME280;66868;42.708;23.404;2023-06-05T12:44:37;95503.38;;;31.29;43.04
77702;BME280;66868;42.708;23.404;2023-06-05T12:47:02;95502.81;;;31.65;42.08
77702;BME280;66868;42.708;23.404;2023-06-05T12:49:28;95495.75;;;31.97;41.36
77702;BME280;66868;42.708;23.404;2023-06-05T12:51:53;95489.56;;;32.23;41.22
77702;BME280;66868;42.708;23.404;2023-06-05T12:54:19;95494.09;;;32.52;39.65
77702;BME280;66868;42.708;23.404;2023-06-05T12:56:45;95503.19;;;32.74;38.72
77702;BME280;66868;42.708;23.404;2023-06-05T12:59:11;95495.22;;;32.88;38.91
77702;BME280;66868;42.708;23.404;2023-06-05T13:01:36;95482.50;;;33.03;38.83
77702;BME280;66868;42.708;23.404;2023-06-05T13:04:02;95491.34;;;33.56;37.87
77702;BME280;66868;42.708;23.404;2023-06-05T13:06:27;95490.41;;;34.22;36.17
77702;BME280;66868;42.708;23.404;2023-06-05T13:08:53;95503.34;;;35.05;34.90
77702;BME280;66868;42.708;23.404;2023-06-05T13:11:20;95497.59;;;36.21;33.23
77702;BME280;66868;42.708;23.404;2023-06-05T13:13:46;95502.63;;;37.33;31.55
77702;BME280;66868;42.708;23.404;2023-06-05T13:16:11;95500.38;;;38.22;29.40
77702;BME280;66868;42.708;23.404;2023-06-05T13:18:37;95494.31;;;38.27;29.48
77702;BME280;66868;42.708;23.404;2023-06-05T13:21:03;95510.75;;;38.29;28.91
77702;BME280;66868;42.708;23.404;2023-06-05T13:23:29;95498.84;;;37.99;28.66